createdAt,value
2022-11-17T05:17:36.961Z,12.60
2022-11-17T05:20:07.402Z,13.03
2022-11-17T05:22:54.702Z,13.45
2022-11-17T05:25:24.298Z,13.29
2022-11-17T05:27:54.988Z,13.26
2022-11-17T05:30:24.549Z,13.57
2022-11-17T05:32:53.786Z,13.34
2022-11-17T05:35:23.078Z,12.79
2022-11-17T05:37:52.263Z,12.94
2022-11-17T05:40:21.589Z,12.83
2022-11-17T05:42:56.840Z,12.79
2022-11-17T05:45:26.825Z,12.66
2022-11-17T05:47:56.016Z,12.48
2022-11-17T05:50:25.898Z,12.47
2022-11-17T05:52:58.972Z,12.32
2022-11-17T05:55:28.489Z,12.34
2022-11-17T05:58:02.363Z,12.39
2022-11-17T06:00:33.657Z,12.54
2022-11-17T06:03:15.980Z,12.38
2022-11-17T06:05:46.002Z,12.82
2022-11-17T06:08:16.553Z,13.05
2022-11-17T06:10:46.186Z,13.50
2022-11-17T06:13:15.351Z,13.35
2022-11-17T06:15:46.319Z,13.99
2022-11-17T06:18:19.431Z,15.06
2022-11-17T06:20:51.289Z,15.61
2022-11-17T06:23:23.553Z,16.22
2022-11-17T06:25:53.126Z,16.83
2022-11-17T06:28:23.886Z,17.81
2022-11-17T06:30:54.157Z,18.35
2022-11-17T06:33:23.641Z,17.84
2022-11-17T06:35:53.117Z,18.50
2022-11-17T06:38:22.562Z,19.22
2022-11-17T06:40:52.921Z,19.62
2022-11-17T06:43:22.578Z,19.41
2022-11-17T06:45:52.373Z,20.17
2022-11-17T06:48:28.299Z,20.46
2022-11-17T06:50:57.786Z,21.13
2022-11-17T06:53:28.149Z,21.46
2022-11-17T06:56:10.187Z,21.18
2022-11-17T06:58:42.625Z,21.87
2022-11-17T07:01:15.272Z,21.82
2022-11-17T07:03:44.895Z,21.76
2022-11-17T07:06:14.544Z,22.21
2022-11-17T07:08:45.193Z,20.43
2022-11-17T07:11:17.636Z,21.29
2022-11-17T07:13:47.189Z,21.35
2022-11-17T07:16:23.278Z,20.69
2022-11-17T07:18:54.845Z,21.11
2022-11-17T07:21:24.329Z,21.78
2022-11-17T07:23:53.745Z,22.25
2022-11-17T07:26:23.312Z,21.66
2022-11-17T07:28:53.021Z,21.75
2022-11-17T07:31:23.036Z,22.34
2022-11-17T07:33:55.574Z,22.67
2022-11-17T07:36:25.075Z,22.75
2022-11-17T07:38:55.628Z,22.10
2022-11-17T07:41:24.941Z,22.31
2022-11-17T07:43:54.438Z,22.78
2022-11-17T07:46:23.945Z,22.22
2022-11-17T07:48:56.691Z,22.10
2022-11-17T07:51:26.023Z,22.93
2022-11-17T07:53:55.313Z,22.11
2022-11-17T07:56:24.779Z,22.50
2022-11-17T07:58:55.774Z,22.67
2022-11-17T08:01:28.406Z,22.06
2022-11-17T08:03:58.803Z,22.49
2022-11-17T08:06:28.289Z,23.06
2022-11-17T08:08:57.541Z,22.98
2022-11-17T08:11:27.191Z,22.93
2022-11-17T08:13:56.487Z,22.79
2022-11-17T08:16:28.241Z,22.47
2022-11-17T08:19:00.762Z,22.44
2022-11-17T08:21:30.067Z,22.59
2022-11-17T08:23:59.379Z,22.01
2022-11-17T08:26:28.957Z,22.57
2022-11-17T08:28:59.879Z,22.76
2022-11-17T08:31:29.909Z,22.73
2022-11-17T08:33:59.054Z,22.45
2022-11-17T08:36:28.488Z,22.31
2022-11-17T08:38:58.052Z,22.74
2022-11-17T08:41:28.140Z,22.66
2022-11-17T08:44:50.282Z,22.53
2022-11-17T08:47:19.830Z,21.17
2022-11-17T08:49:49.060Z,21.15
2022-11-17T08:52:20.457Z,21.47
2022-11-17T08:54:52.395Z,21.72
2022-11-17T08:57:25.261Z,21.16
2022-11-17T08:59:54.746Z,20.66
2022-11-17T09:02:24.359Z,19.66
2022-11-17T09:04:54.521Z,19.94
2022-11-17T09:07:24.016Z,20.41
2022-11-17T09:09:53.538Z,20.00
2022-11-17T09:12:25.694Z,20.02
2022-11-17T09:14:55.202Z,19.83
2022-11-17T09:17:24.781Z,19.23
2022-11-17T09:19:54.502Z,18.66
2022-11-17T09:22:23.875Z,18.32
2022-11-17T09:24:53.498Z,18.31
2022-11-17T09:27:22.645Z,18.37
2022-11-17T09:29:52.200Z,17.81
2022-11-17T09:32:21.958Z,18.17
2022-11-17T09:34:51.479Z,18.10
2022-11-17T09:37:21.623Z,17.84
2022-11-17T09:39:52.073Z,17.70
2022-11-17T09:42:23.978Z,17.90
2022-11-17T09:45:06.767Z,17.60
2022-11-17T09:47:45.265Z,17.99
2022-11-17T09:50:29.416Z,18.21
2022-11-17T09:53:20.341Z,18.62
2022-11-17T09:55:55.179Z,18.47
2022-11-17T09:58:33.016Z,18.90
2022-11-17T10:01:02.958Z,18.08
2022-11-17T10:03:43.852Z,18.73
2022-11-17T10:06:30.014Z,18.94
2022-11-17T10:09:11.460Z,18.64
2022-11-17T10:11:44.797Z,19.05
2022-11-17T10:14:17.667Z,19.18
2022-11-17T10:16:56.825Z,19.14
2022-11-17T10:19:32.377Z,18.58
2022-11-17T10:22:07.490Z,18.64
2022-11-17T10:24:48.538Z,18.66
2022-11-17T10:27:31.739Z,18.66
2022-11-17T10:30:08.353Z,18.65
2022-11-17T10:32:48.525Z,18.55
2022-11-17T10:35:39.099Z,18.46
2022-11-17T10:38:23.832Z,18.00
2022-11-17T10:40:55.219Z,16.87
2022-11-17T10:43:36.935Z,16.78
2022-11-17T10:46:17.977Z,16.58
2022-11-17T10:49:02.614Z,16.12
2022-11-17T10:51:34.370Z,16.16
2022-11-17T10:54:23.323Z,14.64
2022-11-17T10:56:57.563Z,13.35
2022-11-17T10:59:26.875Z,12.64
2022-11-17T11:01:56.237Z,12.03
2022-11-17T11:04:43.562Z,11.59
2022-11-17T11:07:22.348Z,11.04
2022-11-17T11:10:01.698Z,11.40
2022-11-17T11:12:42.776Z,10.79
2022-11-17T11:15:23.661Z,10.38
2022-11-17T11:17:53.608Z,10.15
2022-11-17T11:20:34.911Z,9.45
2022-11-17T11:23:22.461Z,9.08
2022-11-17T11:26:02.175Z,9.33
2022-11-17T11:28:41.287Z,8.94
2022-11-17T11:31:32.628Z,8.84
2022-11-17T11:34:16.551Z,8.49
2022-11-17T11:37:05.993Z,8.39
2022-11-17T11:39:40.974Z,8.34
2022-11-17T11:42:44.077Z,8.07
2022-11-17T11:45:51.981Z,8.00
2022-11-17T11:48:29.472Z,7.79
2022-11-17T11:51:15.777Z,7.72
2022-11-17T11:54:17.421Z,8.03
2022-11-17T11:56:49.939Z,8.13
2022-11-17T12:00:03.999Z,8.11
2022-11-17T12:03:15.247Z,8.22
2022-11-17T12:05:58.939Z,7.90
2022-11-17T12:08:47.647Z,8.01
2022-11-17T12:11:36.247Z,7.66
2022-11-17T12:14:07.691Z,7.58
2022-11-17T12:16:41.339Z,7.77
2022-11-17T12:19:48.080Z,7.87
2022-11-17T12:22:46.839Z,7.59
2022-11-17T12:25:30.045Z,7.63
2022-11-17T12:28:00.447Z,7.64
2022-11-17T12:30:35.621Z,7.53
2022-11-17T12:33:10.212Z,7.60
2022-11-17T12:35:41.454Z,7.71
2022-11-17T12:38:23.961Z,7.61
2022-11-17T12:40:58.239Z,7.43
2022-11-17T12:43:29.259Z,7.39
2022-11-17T12:46:18.517Z,7.46
2022-11-17T12:49:14.056Z,7.54
2022-11-17T12:52:07.860Z,7.62
2022-11-17T12:54:58.901Z,7.53
2022-11-17T12:57:33.376Z,7.37
2022-11-17T13:00:10.666Z,7.68
2022-11-17T13:02:59.627Z,7.82
2022-11-17T13:05:31.281Z,7.81
2022-11-17T13:08:15.587Z,7.63
2022-11-17T13:10:44.648Z,7.64
2022-11-17T13:13:17.686Z,7.86
2022-11-17T13:15:50.409Z,8.00
2022-11-17T13:18:41.416Z,7.97
2022-11-17T13:21:33.898Z,7.77
2022-11-17T13:24:03.014Z,7.74
2022-11-17T13:26:38.825Z,8.08
2022-11-17T13:29:20.912Z,7.85
2022-11-17T13:31:50.054Z,7.71
2022-11-17T13:34:22.112Z,7.92
2022-11-17T13:37:01.908Z,8.16
2022-11-17T13:39:31.859Z,8.09
2022-11-17T13:42:04.123Z,7.97
2022-11-17T13:44:34.166Z,7.80
2022-11-17T13:47:27.910Z,7.60
2022-11-17T13:49:57.083Z,7.83
2022-11-17T13:52:42.180Z,7.97
2022-11-17T13:55:21.230Z,7.91
2022-11-17T13:58:02.988Z,7.72
2022-11-17T14:00:33.632Z,7.36
2022-11-17T14:03:08.389Z,7.36
2022-11-17T14:05:37.443Z,7.35
2022-11-17T14:08:22.595Z,7.25
2022-11-17T14:10:51.847Z,7.46
2022-11-17T14:13:23.890Z,7.58
2022-11-17T14:15:57.403Z,7.43
2022-11-17T14:18:38.807Z,7.49
2022-11-17T14:21:10.881Z,7.42
2022-11-17T14:23:40.810Z,7.31
2022-11-17T14:26:27.819Z,7.23
2022-11-17T14:29:02.986Z,7.03
2022-11-17T14:31:33.453Z,6.99
2022-11-17T14:34:03.968Z,6.86
2022-11-17T14:36:34.380Z,6.71
2022-11-17T14:39:04.260Z,6.68
2022-11-17T14:41:32.928Z,6.34
2022-11-17T14:44:02.065Z,6.11
2022-11-17T14:46:30.829Z,5.85
2022-11-17T14:48:59.548Z,5.89
2022-11-17T14:51:28.725Z,5.96
2022-11-17T14:53:57.701Z,5.86
2022-11-17T14:56:27.258Z,5.65
2022-11-17T14:58:59.579Z,5.44
2022-11-17T15:01:34.707Z,5.24
2022-11-17T15:04:27.212Z,5.15
2022-11-17T15:06:54.759Z,6.02
2022-11-17T15:09:23.721Z,5.84
2022-11-17T15:11:53.011Z,5.60
2022-11-17T15:14:21.719Z,5.34
2022-11-17T15:16:51.810Z,5.48
2022-11-17T15:19:20.535Z,5.70
2022-11-17T15:21:49.807Z,5.66
2022-11-17T15:24:19.214Z,5.78
2022-11-17T15:26:49.330Z,5.67
2022-11-17T15:29:18.426Z,5.76
2022-11-17T15:31:47.926Z,5.72
2022-11-17T15:34:20.114Z,5.84
2022-11-17T15:36:50.533Z,5.82
2022-11-17T15:39:19.623Z,5.73
2022-11-17T15:41:50.552Z,5.54
2022-11-17T15:44:19.624Z,5.63
2022-11-17T15:46:48.552Z,5.46
2022-11-17T15:49:18.067Z,5.27
2022-11-17T15:51:47.205Z,5.09
2022-11-17T15:54:20.400Z,4.97
2022-11-17T15:56:50.296Z,5.13
2022-11-17T15:59:20.403Z,5.13
2022-11-17T16:01:50.046Z,4.98
2022-11-17T16:04:18.791Z,4.85
2022-11-17T16:06:49.092Z,4.74
2022-11-17T16:09:18.347Z,4.47
2022-11-17T16:11:47.540Z,4.46
2022-11-17T16:14:16.396Z,4.41
2022-11-17T16:16:47.657Z,4.22
2022-11-17T16:19:17.033Z,3.87
2022-11-17T16:21:46.292Z,4.07
2022-11-17T16:24:16.080Z,4.01
2022-11-17T16:26:46.382Z,3.95
2022-11-17T16:29:16.200Z,4.26
2022-11-17T16:31:45.700Z,4.31
2022-11-17T16:34:20.137Z,4.44
2022-11-17T16:36:49.437Z,4.51
2022-11-17T16:39:19.360Z,4.30
2022-11-17T16:41:51.236Z,3.91
2022-11-17T16:44:21.313Z,3.99
2022-11-17T16:46:53.363Z,3.84
2022-11-17T16:49:22.519Z,3.71
2022-11-17T16:51:53.660Z,3.57
2022-11-17T16:54:23.262Z,3.54
2022-11-17T16:56:52.083Z,3.71
2022-11-17T16:59:22.021Z,3.63
2022-11-17T17:01:51.093Z,4.19
2022-11-17T17:04:20.541Z,4.70
2022-11-17T17:06:49.513Z,4.73
2022-11-17T17:09:24.747Z,4.59
2022-11-17T17:11:56.846Z,4.20
2022-11-17T17:14:25.662Z,4.40
2022-11-17T17:16:54.893Z,4.77
2022-11-17T17:19:24.989Z,4.74
2022-11-17T17:21:54.500Z,4.78
2022-11-17T17:24:23.209Z,5.14
2022-11-17T17:26:52.601Z,4.95
2022-11-17T17:29:21.352Z,5.09
2022-11-17T17:31:50.752Z,5.04
2022-11-17T17:34:19.994Z,5.49
2022-11-17T17:36:49.438Z,5.53
2022-11-17T17:39:18.471Z,5.37
2022-11-17T17:41:47.854Z,5.44
2022-11-17T17:44:20.890Z,5.77
2022-11-17T17:46:50.248Z,5.96
2022-11-17T17:49:20.002Z,6.00
2022-11-17T17:51:49.379Z,5.98
2022-11-17T17:54:21.617Z,6.20
2022-11-17T17:56:51.086Z,6.16
2022-11-17T17:59:19.962Z,6.47
2022-11-17T18:01:50.864Z,6.56
2022-11-17T18:04:20.246Z,6.75
2022-11-17T18:06:49.599Z,6.55
2022-11-17T18:09:21.968Z,6.47
2022-11-17T18:11:51.505Z,6.52
2022-11-17T18:14:25.177Z,6.44
2022-11-17T18:16:55.556Z,6.60
2022-11-17T18:19:29.741Z,6.67
2022-11-17T18:22:03.040Z,6.64
2022-11-17T18:24:32.149Z,6.92
2022-11-17T18:27:00.962Z,6.97
2022-11-17T18:29:30.165Z,6.68
2022-11-17T18:31:58.837Z,6.36
2022-11-17T18:34:28.082Z,6.43
2022-11-17T18:36:57.340Z,6.79
2022-11-17T18:39:26.407Z,6.99
2022-11-17T18:41:55.232Z,6.77
2022-11-17T18:44:24.229Z,6.57
2022-11-17T18:46:54.213Z,6.60
2022-11-17T18:49:25.718Z,6.22
2022-11-17T18:51:54.439Z,6.27
2022-11-17T18:54:23.341Z,6.39
2022-11-17T18:56:52.094Z,6.51
2022-11-17T18:59:20.922Z,6.58
2022-11-17T19:01:49.919Z,6.75
2022-11-17T19:04:19.216Z,6.93
2022-11-17T19:06:47.978Z,7.04
2022-11-17T19:09:18.667Z,7.13
2022-11-17T19:11:47.824Z,7.05
2022-11-17T19:14:16.717Z,7.23
2022-11-17T19:16:45.509Z,7.30
2022-11-17T19:19:15.738Z,7.27
2022-11-17T19:21:45.379Z,7.07
2022-11-17T19:24:15.086Z,6.96
2022-11-17T19:26:44.423Z,6.98
2022-11-17T19:29:17.206Z,6.96
2022-11-17T19:31:48.442Z,6.75
2022-11-17T19:34:18.323Z,6.46
2022-11-17T19:36:47.084Z,6.54
2022-11-17T19:39:16.513Z,6.60
2022-11-17T19:41:47.439Z,6.55
2022-11-17T19:44:16.549Z,6.78
2022-11-17T19:46:45.342Z,6.71
2022-11-17T19:49:15.163Z,6.38
2022-11-17T19:51:44.522Z,6.21
2022-11-17T19:54:15.640Z,6.10
2022-11-17T19:56:44.647Z,5.93
2022-11-17T19:59:16.391Z,5.82
2022-11-17T20:01:46.887Z,5.84
2022-11-17T20:04:15.856Z,5.52
2022-11-17T20:06:44.940Z,5.73
2022-11-17T20:09:15.688Z,5.80
2022-11-17T20:11:44.981Z,5.67
2022-11-17T20:14:15.283Z,5.69
2022-11-17T20:16:44.185Z,5.84
2022-11-17T20:19:14.689Z,6.06
2022-11-17T20:21:43.822Z,6.17
2022-11-17T20:24:12.688Z,6.00
2022-11-17T20:26:43.934Z,6.27
2022-11-17T20:29:12.841Z,6.36
2022-11-17T20:31:42.785Z,6.59
2022-11-17T20:34:13.758Z,6.66
2022-11-17T20:36:42.692Z,6.47
2022-11-17T20:39:12.078Z,6.53
2022-11-17T20:41:41.253Z,6.38
2022-11-17T20:44:24.680Z,6.64
2022-11-17T20:46:56.036Z,6.45
2022-11-17T20:49:25.578Z,6.52
2022-11-17T20:51:54.186Z,6.60
2022-11-17T20:54:23.307Z,6.85
2022-11-17T20:56:51.952Z,6.95
2022-11-17T20:59:20.927Z,6.74
2022-11-17T21:01:53.031Z,6.71
2022-11-17T21:04:22.209Z,6.50
2022-11-17T21:06:51.043Z,6.32
2022-11-17T21:09:20.129Z,5.98
2022-11-17T21:11:57.730Z,6.19
2022-11-17T21:14:28.121Z,6.14
2022-11-17T21:16:58.459Z,6.07
2022-11-17T21:19:29.008Z,5.93
2022-11-17T21:22:00.758Z,5.75
2022-11-17T21:24:30.172Z,5.90
2022-11-17T21:26:58.919Z,5.53
2022-11-17T21:29:28.599Z,5.54
2022-11-17T21:31:57.310Z,5.27
2022-11-17T21:34:26.411Z,4.86
2022-11-17T21:36:55.138Z,4.75
2022-11-17T21:39:24.371Z,4.68
2022-11-17T21:41:53.054Z,4.74
2022-11-17T21:44:21.987Z,4.59
2022-11-17T21:46:50.825Z,4.62
2022-11-17T21:49:20.366Z,4.83
2022-11-17T21:51:49.494Z,4.58
2022-11-17T21:54:18.395Z,4.84
2022-11-17T21:56:47.488Z,4.71
2022-11-17T21:59:18.096Z,4.58
2022-11-17T22:01:48.188Z,4.68
2022-11-17T22:04:18.201Z,4.81
2022-11-17T22:06:47.564Z,4.81
2022-11-17T22:09:17.330Z,5.52
2022-11-17T22:11:46.139Z,5.59
2022-11-17T22:14:20.362Z,5.81
2022-11-17T22:16:52.824Z,5.94
2022-11-17T22:19:23.607Z,5.98
2022-11-17T22:21:54.859Z,6.29
2022-11-17T22:24:24.094Z,6.42
2022-11-17T22:26:52.981Z,6.29
2022-11-17T22:29:22.944Z,6.17
2022-11-17T22:31:51.911Z,6.11
2022-11-17T22:34:20.850Z,5.82
2022-11-17T22:36:50.248Z,5.62
2022-11-17T22:39:19.905Z,5.34
2022-11-17T22:41:48.992Z,5.22
2022-11-17T22:44:19.409Z,5.07
2022-11-17T22:46:48.554Z,5.49
2022-11-17T22:49:17.625Z,5.94
2022-11-17T22:52:04.668Z,5.94
2022-11-17T22:54:33.970Z,6.01
2022-11-17T22:57:03.509Z,6.11
2022-11-17T22:59:32.544Z,6.47
2022-11-17T23:02:01.187Z,6.65
2022-11-17T23:04:30.340Z,6.75
2022-11-17T23:06:59.061Z,6.83
2022-11-17T23:09:28.070Z,6.85
2022-11-17T23:11:59.422Z,7.04
2022-11-17T23:14:28.628Z,6.83
2022-11-17T23:16:57.346Z,6.89
2022-11-17T23:19:26.379Z,6.73
2022-11-17T23:21:55.152Z,6.92
2022-11-17T23:24:25.101Z,6.77
2022-11-17T23:26:53.964Z,6.60
2022-11-17T23:29:23.114Z,6.57
2022-11-17T23:31:51.783Z,6.16
2022-11-17T23:34:20.862Z,6.05
2022-11-17T23:36:49.556Z,5.95
2022-11-17T23:39:19.321Z,5.81
2022-11-17T23:41:48.195Z,5.59
2022-11-17T23:44:17.229Z,5.23
2022-11-17T23:46:45.981Z,5.43
2022-11-17T23:49:15.626Z,5.36
2022-11-17T23:51:44.686Z,5.21
2022-11-17T23:54:14.152Z,5.45
2022-11-17T23:56:43.039Z,5.38
2022-11-17T23:59:12.190Z,5.33
